Messiah College, Pennsylvania
Current Conditions -  °F | °C
As of 7:56 PM on Monday 24 Nov 2014 (Local Time) from KCXY Reporting Station
Clear Clear  
Wind Chill: 67°   Ceiling: Unl
Heat Index: 67°   Visibility: 10mi
Dew Point: 52°   Wind: 16mph
Humidity: 59%   Direction: 200°SSW
Pressure: 29.64"   Gusts: 23mph
Location:  40.1564°N, 76.9967°W
Report Text: KCXY 250056Z 20014G20KT 10SM CLR 19/11 A2964 RMK AO2 SLP037 T01940111
Loading
Personal Weather Stations






























Interactive Weather Map New forecast layout! Learn more

10-Day Weather Forecast

Advertisements
Track Severe Weather on mobile